Terminal Aerodrome Forecast
Issued by NWS Louisville, KY

Home | Current Version | Previous Version | Text Only | Print | Product List | Glossary On
Versions: 1 2 3 4 5 6 7 8 9 10 11 12 13 14
000
FTUS43 KLMK 191648 AAA
TAFLEX
TAF AMD
KLEX 191648Z 1917/2012 19007KT 4SM -SHRA SCT040 BKN250
      TEMPO 1917/1918 VRB10KT 2SM TSRA BKN030CB
     FM200000 19003KT P6SM SCT250=

USA.gov is the U.S. government's official web portal to all federal, state and local government web resources and services.